sensor_id;sensor_type;location;lat;lon;timestamp;temperature;humidity
20045;DHT22;10183;47.808;9.476;2023-03-14T00:02:11;8.40;99.90
20045;DHT22;10183;47.808;9.476;2023-03-14T00:04:37;8.30;99.90
20045;DHT22;10183;47.808;9.476;2023-03-14T00:07:04;8.20;99.90
20045;DHT22;10183;47.808;9.476;2023-03-14T00:09:30;8.20;99.90
20045;DHT22;10183;47.808;9.476;2023-03-14T00:11:56;8.10;99.90
20045;DHT22;10183;47.808;9.476;2023-03-14T00:14:23;8.10;99.90
20045;DHT22;10183;47.808;9.476;2023-03-14T00:16:49;8.00;99.90
20045;DHT22;10183;47.808;9.476;2023-03-14T00:19:15;7.90;99.90
20045;DHT22;10183;47.808;9.476;2023-03-14T00:21:41;7.90;99.90
20045;DHT22;10183;47.808;9.476;2023-03-14T00:24:08;7.80;99.90
20045;DHT22;10183;47.808;9.476;2023-03-14T00:26:34;7.70;99.90
20045;DHT22;10183;47.808;9.476;2023-03-14T00:29:00;7.70;99.90
20045;DHT22;10183;47.808;9.476;2023-03-14T00:31:27;7.60;99.90
20045;DHT22;10183;47.808;9.476;2023-03-14T00:33:53;7.60;99.90
20045;DHT22;10183;47.808;9.476;2023-03-14T00:36:20;7.60;99.90
20045;DHT22;10183;47.808;9.476;2023-03-14T00:38:48;7.50;99.90
20045;DHT22;10183;47.808;9.476;2023-03-14T00:41:18;7.60;99.90
20045;DHT22;10183;47.808;9.476;2023-03-14T00:43:45;7.50;99.90
20045;DHT22;10183;47.808;9.476;2023-03-14T00:46:12;7.50;99.90
20045;DHT22;10183;47.808;9.476;2023-03-14T00:48:38;7.40;99.90
20045;DHT22;10183;47.808;9.476;2023-03-14T00:51:06;7.50;99.90
20045;DHT22;10183;47.808;9.476;2023-03-14T00:53:35;7.50;99.90
20045;DHT22;10183;47.808;9.476;2023-03-14T00:56:09;7.40;99.90
20045;DHT22;10183;47.808;9.476;2023-03-14T00:58:36;7.30;99.90
20045;DHT22;10183;47.808;9.476;2023-03-14T01:01:10;7.30;99.90
20045;DHT22;10183;47.808;9.476;2023-03-14T01:03:36;7.20;99.90
20045;DHT22;10183;47.808;9.476;2023-03-14T01:06:19;7.20;99.90
20045;DHT22;10183;47.808;9.476;2023-03-14T01:08:46;7.10;99.90
20045;DHT22;10183;47.808;9.476;2023-03-14T01:11:15;7.10;99.90
20045;DHT22;10183;47.808;9.476;2023-03-14T01:13:42;7.20;99.90
20045;DHT22;10183;47.808;9.476;2023-03-14T01:16:10;7.20;99.90
20045;DHT22;10183;47.808;9.476;2023-03-14T01:18:38;7.20;99.90
20045;DHT22;10183;47.808;9.476;2023-03-14T01:21:14;7.30;99.90
20045;DHT22;10183;47.808;9.476;2023-03-14T01:23:41;7.30;99.90
20045;DHT22;10183;47.808;9.476;2023-03-14T01:26:12;7.30;99.90
20045;DHT22;10183;47.808;9.476;2023-03-14T01:28:39;7.20;99.90
20045;DHT22;10183;47.808;9.476;2023-03-14T01:31:08;7.10;99.90
20045;DHT22;10183;47.808;9.476;2023-03-14T01:33:35;7.10;99.90
20045;DHT22;10183;47.808;9.476;2023-03-14T01:36:02;7.00;99.90
20045;DHT22;10183;47.808;9.476;2023-03-14T01:38:29;6.90;99.90
20045;DHT22;10183;47.808;9.476;2023-03-14T01:40:56;6.90;99.90
20045;DHT22;10183;47.808;9.476;2023-03-14T01:43:22;6.90;99.90
20045;DHT22;10183;47.808;9.476;2023-03-14T01:49:05;6.80;99.90
20045;DHT22;10183;47.808;9.476;2023-03-14T01:57:20;6.80;99.90
20045;DHT22;10183;47.808;9.476;2023-03-14T01:59:55;6.80;99.90
20045;DHT22;10183;47.808;9.476;2023-03-14T02:02:25;6.80;99.90
20045;DHT22;10183;47.808;9.476;2023-03-14T02:04:54;6.80;99.90
20045;DHT22;10183;47.808;9.476;2023-03-14T02:07:37;6.80;99.90
20045;DHT22;10183;47.808;9.476;2023-03-14T02:10:06;6.80;99.90
20045;DHT22;10183;47.808;9.476;2023-03-14T02:12:35;6.80;99.90
20045;DHT22;10183;47.808;9.476;2023-03-14T02:15:02;6.70;99.90
20045;DHT22;10183;47.808;9.476;2023-03-14T02:17:28;6.70;99.90
20045;DHT22;10183;47.808;9.476;2023-03-14T02:22:42;6.70;99.90
20045;DHT22;10183;47.808;9.476;2023-03-14T02:27:39;6.70;99.90
20045;DHT22;10183;47.808;9.476;2023-03-14T02:30:10;6.70;99.90
20045;DHT22;10183;47.808;9.476;2023-03-14T02:32:39;6.70;99.90
20045;DHT22;10183;47.808;9.476;2023-03-14T02:35:09;6.70;99.90
20045;DHT22;10183;47.808;9.476;2023-03-14T02:37:56;6.60;99.90
20045;DHT22;10183;47.808;9.476;2023-03-14T02:40:25;6.70;99.90
20045;DHT22;10183;47.808;9.476;2023-03-14T02:42:51;6.70;99.90
20045;DHT22;10183;47.808;9.476;2023-03-14T02:47:54;6.80;99.90
20045;DHT22;10183;47.808;9.476;2023-03-14T02:50:26;6.80;99.90
20045;DHT22;10183;47.808;9.476;2023-03-14T02:52:55;6.80;99.90
20045;DHT22;10183;47.808;9.476;2023-03-14T02:55:21;6.80;99.90
20045;DHT22;10183;47.808;9.476;2023-03-14T02:57:48;6.80;99.90
20045;DHT22;10183;47.808;9.476;2023-03-14T03:00:14;6.80;99.90
20045;DHT22;10183;47.808;9.476;2023-03-14T03:02:40;6.80;99.90
20045;DHT22;10183;47.808;9.476;2023-03-14T03:05:07;6.80;99.90
20045;DHT22;10183;47.808;9.476;2023-03-14T03:07:33;6.80;99.90
20045;DHT22;10183;47.808;9.476;2023-03-14T03:09:59;6.80;99.90
20045;DHT22;10183;47.808;9.476;2023-03-14T03:12:25;6.70;99.90
20045;DHT22;10183;47.808;9.476;2023-03-14T03:14:51;6.80;99.90
20045;DHT22;10183;47.808;9.476;2023-03-14T03:17:18;6.70;99.90
20045;DHT22;10183;47.808;9.476;2023-03-14T03:19:44;6.70;99.90
20045;DHT22;10183;47.808;9.476;2023-03-14T03:22:10;6.80;99.90
20045;DHT22;10183;47.808;9.476;2023-03-14T03:24:36;6.80;99.90
20045;DHT22;10183;47.808;9.476;2023-03-14T03:27:02;6.80;99.90
20045;DHT22;10183;47.808;9.476;2023-03-14T03:29:29;6.80;99.90
20045;DHT22;10183;47.808;9.476;2023-03-14T03:31:55;6.80;99.90
20045;DHT22;10183;47.808;9.476;2023-03-14T03:34:21;6.80;99.90
20045;DHT22;10183;47.808;9.476;2023-03-14T03:36:47;6.80;99.90
20045;DHT22;10183;47.808;9.476;2023-03-14T03:39:13;6.80;99.90
20045;DHT22;10183;47.808;9.476;2023-03-14T03:41:40;6.80;99.90
20045;DHT22;10183;47.808;9.476;2023-03-14T03:44:06;6.70;99.90
20045;DHT22;10183;47.808;9.476;2023-03-14T03:46:32;6.70;99.90
20045;DHT22;10183;47.808;9.476;2023-03-14T03:48:59;6.80;99.90
20045;DHT22;10183;47.808;9.476;2023-03-14T03:51:26;6.90;99.90
20045;DHT22;10183;47.808;9.476;2023-03-14T03:53:52;6.80;99.90
20045;DHT22;10183;47.808;9.476;2023-03-14T03:56:18;6.70;99.90
20045;DHT22;10183;47.808;9.476;2023-03-14T03:58:44;6.90;99.90
20045;DHT22;10183;47.808;9.476;2023-03-14T04:01:11;7.00;99.90
20045;DHT22;10183;47.808;9.476;2023-03-14T04:03:37;6.90;99.90
20045;DHT22;10183;47.808;9.476;2023-03-14T04:06:09;7.00;99.90
20045;DHT22;10183;47.808;9.476;2023-03-14T04:08:35;6.90;99.90
20045;DHT22;10183;47.808;9.476;2023-03-14T04:11:02;6.90;99.90
20045;DHT22;10183;47.808;9.476;2023-03-14T04:13:29;6.90;99.90
20045;DHT22;10183;47.808;9.476;2023-03-14T04:15:56;6.90;99.90
20045;DHT22;10183;47.808;9.476;2023-03-14T04:18:23;6.90;99.90
20045;DHT22;10183;47.808;9.476;2023-03-14T04:20:51;7.00;99.90
20045;DHT22;10183;47.808;9.476;2023-03-14T04:23:18;7.00;99.90
20045;DHT22;10183;47.808;9.476;2023-03-14T04:25:44;7.00;99.90
20045;DHT22;10183;47.808;9.476;2023-03-14T04:28:10;6.90;99.90
20045;DHT22;10183;47.808;9.476;2023-03-14T04:30:36;6.90;99.90
20045;DHT22;10183;47.808;9.476;2023-03-14T04:33:02;7.00;99.90
20045;DHT22;10183;47.808;9.476;2023-03-14T04:35:31;6.90;99.90
20045;DHT22;10183;47.808;9.476;2023-03-14T04:37:57;6.90;99.90
20045;DHT22;10183;47.808;9.476;2023-03-14T04:40:23;6.80;99.90
20045;DHT22;10183;47.808;9.476;2023-03-14T04:42:49;6.80;99.90
20045;DHT22;10183;47.808;9.476;2023-03-14T04:45:15;6.80;99.90
20045;DHT22;10183;47.808;9.476;2023-03-14T04:47:42;6.80;99.90
20045;DHT22;10183;47.808;9.476;2023-03-14T04:50:09;6.90;99.90
20045;DHT22;10183;47.808;9.476;2023-03-14T04:52:36;6.90;99.90
20045;DHT22;10183;47.808;9.476;2023-03-14T04:55:02;6.80;99.90
20045;DHT22;10183;47.808;9.476;2023-03-14T04:57:28;6.80;99.90
20045;DHT22;10183;47.808;9.476;2023-03-14T04:59:54;6.90;99.90
20045;DHT22;10183;47.808;9.476;2023-03-14T05:02:20;6.90;99.90
20045;DHT22;10183;47.808;9.476;2023-03-14T05:04:46;6.80;99.90
20045;DHT22;10183;47.808;9.476;2023-03-14T05:07:13;6.80;99.90
20045;DHT22;10183;47.808;9.476;2023-03-14T05:09:39;6.80;99.90
20045;DHT22;10183;47.808;9.476;2023-03-14T05:12:05;6.70;99.90
20045;DHT22;10183;47.808;9.476;2023-03-14T05:14:31;6.80;99.90
20045;DHT22;10183;47.808;9.476;2023-03-14T05:16:58;6.80;99.90
20045;DHT22;10183;47.808;9.476;2023-03-14T05:19:24;6.80;99.90
20045;DHT22;10183;47.808;9.476;2023-03-14T05:21:50;6.80;99.90
20045;DHT22;10183;47.808;9.476;2023-03-14T05:24:16;6.70;99.90
20045;DHT22;10183;47.808;9.476;2023-03-14T05:26:42;6.70;99.90
20045;DHT22;10183;47.808;9.476;2023-03-14T05:29:08;6.70;99.90
20045;DHT22;10183;47.808;9.476;2023-03-14T05:31:35;6.70;99.90
20045;DHT22;10183;47.808;9.476;2023-03-14T05:34:01;6.80;99.90
20045;DHT22;10183;47.808;9.476;2023-03-14T05:36:27;6.70;99.90
20045;DHT22;10183;47.808;9.476;2023-03-14T05:38:53;6.80;99.90
20045;DHT22;10183;47.808;9.476;2023-03-14T05:41:19;6.70;99.90
20045;DHT22;10183;47.808;9.476;2023-03-14T05:43:45;6.70;99.90
20045;DHT22;10183;47.808;9.476;2023-03-14T05:46:11;6.60;99.90
20045;DHT22;10183;47.808;9.476;2023-03-14T05:48:38;6.70;99.90
20045;DHT22;10183;47.808;9.476;2023-03-14T05:51:05;6.60;99.90
20045;DHT22;10183;47.808;9.476;2023-03-14T05:53:31;6.60;99.90
20045;DHT22;10183;47.808;9.476;2023-03-14T05:55:57;6.60;99.90
20045;DHT22;10183;47.808;9.476;2023-03-14T05:58:23;6.70;99.90
20045;DHT22;10183;47.808;9.476;2023-03-14T06:00:50;6.60;99.90
20045;DHT22;10183;47.808;9.476;2023-03-14T06:03:16;6.50;99.90
20045;DHT22;10183;47.808;9.476;2023-03-14T06:05:42;6.60;99.90
20045;DHT22;10183;47.808;9.476;2023-03-14T06:08:08;6.60;99.90
20045;DHT22;10183;47.808;9.476;2023-03-14T06:10:35;6.60;99.90
20045;DHT22;10183;47.808;9.476;2023-03-14T06:13:02;6.70;99.90
20045;DHT22;10183;47.808;9.476;2023-03-14T06:15:28;6.60;99.90
20045;DHT22;10183;47.808;9.476;2023-03-14T06:17:55;6.60;99.90
20045;DHT22;10183;47.808;9.476;2023-03-14T06:20:22;6.70;99.90
20045;DHT22;10183;47.808;9.476;2023-03-14T06:22:48;6.60;99.90
20045;DHT22;10183;47.808;9.476;2023-03-14T06:25:14;6.60;99.90
20045;DHT22;10183;47.808;9.476;2023-03-14T06:27:40;6.60;99.90
20045;DHT22;10183;47.808;9.476;2023-03-14T06:30:08;6.70;99.90
20045;DHT22;10183;47.808;9.476;2023-03-14T06:32:34;6.70;99.90
20045;DHT22;10183;47.808;9.476;2023-03-14T06:35:00;6.80;99.90
20045;DHT22;10183;47.808;9.476;2023-03-14T06:37:28;6.80;99.90
20045;DHT22;10183;47.808;9.476;2023-03-14T06:39:54;6.70;99.90
20045;DHT22;10183;47.808;9.476;2023-03-14T06:42:21;6.80;99.90
20045;DHT22;10183;47.808;9.476;2023-03-14T06:44:47;6.80;99.90
20045;DHT22;10183;47.808;9.476;2023-03-14T06:47:13;6.80;99.90
20045;DHT22;10183;47.808;9.476;2023-03-14T06:49:39;6.80;99.90
20045;DHT22;10183;47.808;9.476;2023-03-14T06:52:06;6.80;99.90
20045;DHT22;10183;47.808;9.476;2023-03-14T06:54:32;6.90;99.90
20045;DHT22;10183;47.808;9.476;2023-03-14T06:56:58;7.00;99.90
20045;DHT22;10183;47.808;9.476;2023-03-14T06:59:24;7.10;99.90
20045;DHT22;10183;47.808;9.476;2023-03-14T07:01:50;7.10;99.90
20045;DHT22;10183;47.808;9.476;2023-03-14T07:04:17;7.00;99.90
20045;DHT22;10183;47.808;9.476;2023-03-14T07:06:43;7.10;99.90
20045;DHT22;10183;47.808;9.476;2023-03-14T07:09:14;7.10;99.90
20045;DHT22;10183;47.808;9.476;2023-03-14T07:11:40;7.20;99.90
20045;DHT22;10183;47.808;9.476;2023-03-14T07:14:06;7.20;99.90
20045;DHT22;10183;47.808;9.476;2023-03-14T07:16:33;7.20;99.90
20045;DHT22;10183;47.808;9.476;2023-03-14T07:19:00;7.30;99.90
20045;DHT22;10183;47.808;9.476;2023-03-14T07:21:26;7.30;99.90
20045;DHT22;10183;47.808;9.476;2023-03-14T07:23:52;7.40;99.90
20045;DHT22;10183;47.808;9.476;2023-03-14T07:26:19;7.30;99.90
20045;DHT22;10183;47.808;9.476;2023-03-14T07:28:45;7.40;99.90
20045;DHT22;10183;47.808;9.476;2023-03-14T07:31:12;7.40;99.90
20045;DHT22;10183;47.808;9.476;2023-03-14T07:33:38;7.40;99.90
20045;DHT22;10183;47.808;9.476;2023-03-14T07:36:05;7.40;99.90
20045;DHT22;10183;47.808;9.476;2023-03-14T07:38:31;7.50;99.90
20045;DHT22;10183;47.808;9.476;2023-03-14T07:40:59;7.50;99.90
20045;DHT22;10183;47.808;9.476;2023-03-14T07:43:26;7.50;99.90
20045;DHT22;10183;47.808;9.476;2023-03-14T07:45:52;7.50;99.90
20045;DHT22;10183;47.808;9.476;2023-03-14T07:48:18;7.60;99.90
20045;DHT22;10183;47.808;9.476;2023-03-14T07:50:49;7.60;99.90
20045;DHT22;10183;47.808;9.476;2023-03-14T07:53:15;7.60;99.90
20045;DHT22;10183;47.808;9.476;2023-03-14T07:55:42;7.60;99.90
20045;DHT22;10183;47.808;9.476;2023-03-14T07:58:08;7.60;99.90
20045;DHT22;10183;47.808;9.476;2023-03-14T08:00:35;7.60;99.90
20045;DHT22;10183;47.808;9.476;2023-03-14T08:03:01;7.60;99.90
20045;DHT22;10183;47.808;9.476;2023-03-14T08:05:27;7.70;99.90
20045;DHT22;10183;47.808;9.476;2023-03-14T08:07:54;7.80;99.90
20045;DHT22;10183;47.808;9.476;2023-03-14T08:10:20;7.90;99.90
20045;DHT22;10183;47.808;9.476;2023-03-14T08:12:50;7.90;99.90
20045;DHT22;10183;47.808;9.476;2023-03-14T08:15:16;8.00;99.90
20045;DHT22;10183;47.808;9.476;2023-03-14T08:17:42;8.00;99.90
20045;DHT22;10183;47.808;9.476;2023-03-14T08:20:09;8.20;99.90
20045;DHT22;10183;47.808;9.476;2023-03-14T08:22:37;8.40;99.90
20045;DHT22;10183;47.808;9.476;2023-03-14T08:25:04;8.30;99.90
20045;DHT22;10183;47.808;9.476;2023-03-14T08:27:31;8.20;99.90
20045;DHT22;10183;47.808;9.476;2023-03-14T08:29:57;8.20;99.90
20045;DHT22;10183;47.808;9.476;2023-03-14T08:32:23;8.30;99.90
20045;DHT22;10183;47.808;9.476;2023-03-14T08:34:49;8.30;99.90
20045;DHT22;10183;47.808;9.476;2023-03-14T08:37:16;8.30;99.90
20045;DHT22;10183;47.808;9.476;2023-03-14T08:39:42;8.60;99.90
20045;DHT22;10183;47.808;9.476;2023-03-14T08:42:11;8.50;99.90
20045;DHT22;10183;47.808;9.476;2023-03-14T08:44:44;8.70;99.90
20045;DHT22;10183;47.808;9.476;2023-03-14T08:47:11;8.80;99.90
20045;DHT22;10183;47.808;9.476;2023-03-14T08:49:37;8.80;99.90
20045;DHT22;10183;47.808;9.476;2023-03-14T08:52:04;8.90;99.90
20045;DHT22;10183;47.808;9.476;2023-03-14T08:54:31;9.10;99.90
20045;DHT22;10183;47.808;9.476;2023-03-14T08:56:58;8.80;99.90
20045;DHT22;10183;47.808;9.476;2023-03-14T08:59:24;9.20;99.90
20045;DHT22;10183;47.808;9.476;2023-03-14T09:01:50;8.80;99.90
20045;DHT22;10183;47.808;9.476;2023-03-14T09:04:17;8.70;99.90
20045;DHT22;10183;47.808;9.476;2023-03-14T09:06:43;8.70;99.90
20045;DHT22;10183;47.808;9.476;2023-03-14T09:09:09;8.60;99.90
20045;DHT22;10183;47.808;9.476;2023-03-14T09:11:35;8.60;99.90
20045;DHT22;10183;47.808;9.476;2023-03-14T09:14:02;9.10;99.90
20045;DHT22;10183;47.808;9.476;2023-03-14T09:16:28;9.30;99.90
20045;DHT22;10183;47.808;9.476;2023-03-14T09:18:54;9.40;99.90
20045;DHT22;10183;47.808;9.476;2023-03-14T09:21:21;9.90;99.90
20045;DHT22;10183;47.808;9.476;2023-03-14T09:23:47;9.70;99.90
20045;DHT22;10183;47.808;9.476;2023-03-14T09:26:13;10.00;99.90
20045;DHT22;10183;47.808;9.476;2023-03-14T09:28:39;9.90;99.90
20045;DHT22;10183;47.808;9.476;2023-03-14T09:31:10;10.00;99.90
20045;DHT22;10183;47.808;9.476;2023-03-14T09:33:37;9.90;99.90
20045;DHT22;10183;47.808;9.476;2023-03-14T09:36:04;9.60;99.90
20045;DHT22;10183;47.808;9.476;2023-03-14T09:38:31;10.10;99.90
20045;DHT22;10183;47.808;9.476;2023-03-14T09:41:01;10.10;99.90
20045;DHT22;10183;47.808;9.476;2023-03-14T09:43:30;10.10;99.90
20045;DHT22;10183;47.808;9.476;2023-03-14T09:45:58;9.80;99.90
20045;DHT22;10183;47.808;9.476;2023-03-14T09:48:27;9.50;99.90
20045;DHT22;10183;47.808;9.476;2023-03-14T09:50:57;9.30;99.90
20045;DHT22;10183;47.808;9.476;2023-03-14T09:53:34;9.50;99.90
20045;DHT22;10183;47.808;9.476;2023-03-14T09:56:03;9.40;99.90
20045;DHT22;10183;47.808;9.476;2023-03-14T09:58:29;9.50;99.90
20045;DHT22;10183;47.808;9.476;2023-03-14T10:00:57;9.50;99.90
20045;DHT22;10183;47.808;9.476;2023-03-14T10:03:32;9.60;99.90
20045;DHT22;10183;47.808;9.476;2023-03-14T10:05:59;9.70;99.90
20045;DHT22;10183;47.808;9.476;2023-03-14T10:08:26;9.50;99.90
20045;DHT22;10183;47.808;9.476;2023-03-14T10:10:53;9.50;99.90
20045;DHT22;10183;47.808;9.476;2023-03-14T10:13:26;9.50;99.90
20045;DHT22;10183;47.808;9.476;2023-03-14T10:15:55;9.60;99.90
20045;DHT22;10183;47.808;9.476;2023-03-14T10:18:24;9.50;99.90
20045;DHT22;10183;47.808;9.476;2023-03-14T10:21:21;9.50;99.90
20045;DHT22;10183;47.808;9.476;2023-03-14T10:23:47;9.50;99.90
20045;DHT22;10183;47.808;9.476;2023-03-14T10:26:18;9.50;99.90
20045;DHT22;10183;47.808;9.476;2023-03-14T10:28:53;9.50;99.90
20045;DHT22;10183;47.808;9.476;2023-03-14T10:31:25;9.40;99.90
20045;DHT22;10183;47.808;9.476;2023-03-14T10:34:04;9.40;99.90
20045;DHT22;10183;47.808;9.476;2023-03-14T10:36:33;9.40;99.90
20045;DHT22;10183;47.808;9.476;2023-03-14T10:39:21;9.30;99.90
20045;DHT22;10183;47.808;9.476;2023-03-14T10:41:53;9.30;99.90
20045;DHT22;10183;47.808;9.476;2023-03-14T10:44:24;9.30;99.90
20045;DHT22;10183;47.808;9.476;2023-03-14T10:46:58;9.30;99.90
20045;DHT22;10183;47.808;9.476;2023-03-14T10:49:28;9.20;99.90
20045;DHT22;10183;47.808;9.476;2023-03-14T10:51:55;9.00;99.90
20045;DHT22;10183;47.808;9.476;2023-03-14T10:54:23;8.70;99.90
20045;DHT22;10183;47.808;9.476;2023-03-14T10:56:58;8.60;99.90
20045;DHT22;10183;47.808;9.476;2023-03-14T10:59:24;8.60;99.90
20045;DHT22;10183;47.808;9.476;2023-03-14T11:02:04;8.70;99.90
20045;DHT22;10183;47.808;9.476;2023-03-14T11:07:33;8.80;99.90
20045;DHT22;10183;47.808;9.476;2023-03-14T11:15:51;8.40;99.90
20045;DHT22;10183;47.808;9.476;2023-03-14T11:21:37;8.10;99.90
20045;DHT22;10183;47.808;9.476;2023-03-14T11:27:02;8.00;99.90
20045;DHT22;10183;47.808;9.476;2023-03-14T11:29:41;7.90;99.90
20045;DHT22;10183;47.808;9.476;2023-03-14T11:35:13;7.40;99.90
20045;DHT22;10183;47.808;9.476;2023-03-14T11:38:03;7.40;99.90
20045;DHT22;10183;47.808;9.476;2023-03-14T11:40:33;7.30;99.90
20045;DHT22;10183;47.808;9.476;2023-03-14T11:43:11;7.30;99.90
20045;DHT22;10183;47.808;9.476;2023-03-14T11:45:42;7.30;99.90
20045;DHT22;10183;47.808;9.476;2023-03-14T11:48:39;7.20;99.90
20045;DHT22;10183;47.808;9.476;2023-03-14T11:51:17;7.30;99.90
20045;DHT22;10183;47.808;9.476;2023-03-14T11:57:16;7.30;99.90
20045;DHT22;10183;47.808;9.476;2023-03-14T12:00:00;7.30;99.90
20045;DHT22;10183;47.808;9.476;2023-03-14T12:05:48;7.10;99.90
20045;DHT22;10183;47.808;9.476;2023-03-14T12:08:25;7.00;99.90
20045;DHT22;10183;47.808;9.476;2023-03-14T12:11:19;6.90;99.90
20045;DHT22;10183;47.808;9.476;2023-03-14T12:13:48;6.90;99.90
20045;DHT22;10183;47.808;9.476;2023-03-14T12:16:36;6.80;99.90
20045;DHT22;10183;47.808;9.476;2023-03-14T12:19:29;6.70;99.90
20045;DHT22;10183;47.808;9.476;2023-03-14T12:22:13;6.60;99.90
20045;DHT22;10183;47.808;9.476;2023-03-14T12:24:50;6.50;99.90
20045;DHT22;10183;47.808;9.476;2023-03-14T12:28:37;6.50;99.90
20045;DHT22;10183;47.808;9.476;2023-03-14T12:35:44;6.30;99.90
20045;DHT22;10183;47.808;9.476;2023-03-14T12:38:16;6.10;99.90
20045;DHT22;10183;47.808;9.476;2023-03-14T12:43:31;5.90;99.90
20045;DHT22;10183;47.808;9.476;2023-03-14T12:48:55;5.80;99.90
20045;DHT22;10183;47.808;9.476;2023-03-14T12:51:41;5.70;99.90
20045;DHT22;10183;47.808;9.476;2023-03-14T12:57:23;5.70;99.90
20045;DHT22;10183;47.808;9.476;2023-03-14T12:59:56;5.70;99.90
20045;DHT22;10183;47.808;9.476;2023-03-14T13:02:40;5.70;99.90
20045;DHT22;10183;47.808;9.476;2023-03-14T13:05:20;5.80;99.90
20045;DHT22;10183;47.808;9.476;2023-03-14T13:10:28;5.80;99.90
20045;DHT22;10183;47.808;9.476;2023-03-14T13:13:24;5.90;99.90
20045;DHT22;10183;47.808;9.476;2023-03-14T13:15:57;5.90;99.90
20045;DHT22;10183;47.808;9.476;2023-03-14T13:18:36;5.90;99.90
20045;DHT22;10183;47.808;9.476;2023-03-14T13:21:17;6.00;99.90
20045;DHT22;10183;47.808;9.476;2023-03-14T13:24:04;5.90;99.90
20045;DHT22;10183;47.808;9.476;2023-03-14T13:26:39;6.00;99.90
20045;DHT22;10183;47.808;9.476;2023-03-14T13:29:22;6.00;99.90
20045;DHT22;10183;47.808;9.476;2023-03-14T13:32:28;6.00;99.90
20045;DHT22;10183;47.808;9.476;2023-03-14T13:34:58;6.00;99.90
20045;DHT22;10183;47.808;9.476;2023-03-14T13:37:26;6.00;99.90
20045;DHT22;10183;47.808;9.476;2023-03-14T13:39:57;6.10;99.90
20045;DHT22;10183;47.808;9.476;2023-03-14T13:42:28;6.00;99.90
20045;DHT22;10183;47.808;9.476;2023-03-14T13:44:56;5.90;99.90
20045;DHT22;10183;47.808;9.476;2023-03-14T13:47:24;5.80;99.90
20045;DHT22;10183;47.808;9.476;2023-03-14T13:49:52;5.70;99.90
20045;DHT22;10183;47.808;9.476;2023-03-14T13:52:35;5.50;99.90
20045;DHT22;10183;47.808;9.476;2023-03-14T13:55:04;5.40;99.90
20045;DHT22;10183;47.808;9.476;2023-03-14T13:57:46;5.40;99.90
20045;DHT22;10183;47.808;9.476;2023-03-14T14:00:22;5.30;99.90
20045;DHT22;10183;47.808;9.476;2023-03-14T14:02:57;5.20;99.90
20045;DHT22;10183;47.808;9.476;2023-03-14T14:05:28;5.20;99.90
20045;DHT22;10183;47.808;9.476;2023-03-14T14:07:56;5.30;99.90
20045;DHT22;10183;47.808;9.476;2023-03-14T14:10:22;5.30;99.90
20045;DHT22;10183;47.808;9.476;2023-03-14T14:12:59;5.50;99.90
20045;DHT22;10183;47.808;9.476;2023-03-14T14:15:28;5.70;99.90
20045;DHT22;10183;47.808;9.476;2023-03-14T14:17:59;5.90;99.90
20045;DHT22;10183;47.808;9.476;2023-03-14T14:20:36;6.20;99.90
20045;DHT22;10183;47.808;9.476;2023-03-14T14:23:10;6.20;99.90
20045;DHT22;10183;47.808;9.476;2023-03-14T14:25:38;6.00;99.90
20045;DHT22;10183;47.808;9.476;2023-03-14T14:28:24;5.90;99.90
20045;DHT22;10183;47.808;9.476;2023-03-14T14:31:22;6.20;99.90
20045;DHT22;10183;47.808;9.476;2023-03-14T14:33:56;6.40;99.90
20045;DHT22;10183;47.808;9.476;2023-03-14T14:38:53;7.70;99.90
20045;DHT22;10183;47.808;9.476;2023-03-14T14:41:20;7.90;99.90
20045;DHT22;10183;47.808;9.476;2023-03-14T14:43:47;9.10;99.90
20045;DHT22;10183;47.808;9.476;2023-03-14T14:46:17;8.90;99.90
20045;DHT22;10183;47.808;9.476;2023-03-14T14:48:44;7.90;99.90
20045;DHT22;10183;47.808;9.476;2023-03-14T14:51:26;7.80;99.90
20045;DHT22;10183;47.808;9.476;2023-03-14T14:54:09;7.00;99.90
20045;DHT22;10183;47.808;9.476;2023-03-14T14:56:37;6.80;99.90
20045;DHT22;10183;47.808;9.476;2023-03-14T14:59:06;6.60;99.90
20045;DHT22;10183;47.808;9.476;2023-03-14T15:01:35;6.40;99.90
20045;DHT22;10183;47.808;9.476;2023-03-14T15:04:13;6.50;99.90
20045;DHT22;10183;47.808;9.476;2023-03-14T15:06:46;6.70;99.90
20045;DHT22;10183;47.808;9.476;2023-03-14T15:09:14;6.70;99.90
20045;DHT22;10183;47.808;9.476;2023-03-14T15:11:42;6.70;99.90
20045;DHT22;10183;47.808;9.476;2023-03-14T15:14:08;6.60;99.90
20045;DHT22;10183;47.808;9.476;2023-03-14T15:16:35;6.50;99.90
20045;DHT22;10183;47.808;9.476;2023-03-14T15:19:08;6.60;99.90
20045;DHT22;10183;47.808;9.476;2023-03-14T15:21:35;6.60;99.90
20045;DHT22;10183;47.808;9.476;2023-03-14T15:24:03;6.60;99.90
20045;DHT22;10183;47.808;9.476;2023-03-14T15:26:29;6.70;99.90
20045;DHT22;10183;47.808;9.476;2023-03-14T15:28:55;6.60;99.90
20045;DHT22;10183;47.808;9.476;2023-03-14T15:31:22;6.60;99.90
20045;DHT22;10183;47.808;9.476;2023-03-14T15:33:49;6.60;99.90
20045;DHT22;10183;47.808;9.476;2023-03-14T15:36:28;6.50;99.90
20045;DHT22;10183;47.808;9.476;2023-03-14T15:38:57;6.40;99.90
20045;DHT22;10183;47.808;9.476;2023-03-14T15:41:26;6.60;99.90
20045;DHT22;10183;47.808;9.476;2023-03-14T15:43:52;6.50;99.90
20045;DHT22;10183;47.808;9.476;2023-03-14T15:46:18;6.60;99.90
20045;DHT22;10183;47.808;9.476;2023-03-14T15:48:45;6.70;99.90
20045;DHT22;10183;47.808;9.476;2023-03-14T15:51:12;6.70;99.90
20045;DHT22;10183;47.808;9.476;2023-03-14T15:53:39;6.60;99.90
20045;DHT22;10183;47.808;9.476;2023-03-14T15:56:06;6.60;99.90
20045;DHT22;10183;47.808;9.476;2023-03-14T15:58:33;6.70;99.90
20045;DHT22;10183;47.808;9.476;2023-03-14T16:01:03;6.70;99.90
20045;DHT22;10183;47.808;9.476;2023-03-14T16:03:29;6.60;99.90
20045;DHT22;10183;47.808;9.476;2023-03-14T16:05:56;6.60;99.90
20045;DHT22;10183;47.808;9.476;2023-03-14T16:08:23;6.60;99.90
20045;DHT22;10183;47.808;9.476;2023-03-14T16:10:51;6.70;99.90
20045;DHT22;10183;47.808;9.476;2023-03-14T16:13:18;6.60;99.90
20045;DHT22;10183;47.808;9.476;2023-03-14T16:15:55;6.60;99.90
20045;DHT22;10183;47.808;9.476;2023-03-14T16:18:22;6.60;99.90
20045;DHT22;10183;47.808;9.476;2023-03-14T16:21:00;6.50;99.90
20045;DHT22;10183;47.808;9.476;2023-03-14T16:23:28;6.40;99.90
20045;DHT22;10183;47.808;9.476;2023-03-14T16:25:55;6.40;99.90
20045;DHT22;10183;47.808;9.476;2023-03-14T16:28:22;6.40;99.90
20045;DHT22;10183;47.808;9.476;2023-03-14T16:30:49;6.40;99.90
20045;DHT22;10183;47.808;9.476;2023-03-14T16:33:15;6.40;99.90
20045;DHT22;10183;47.808;9.476;2023-03-14T16:35:53;6.70;99.90
20045;DHT22;10183;47.808;9.476;2023-03-14T16:38:19;6.70;99.90
20045;DHT22;10183;47.808;9.476;2023-03-14T16:41:12;6.60;99.90
20045;DHT22;10183;47.808;9.476;2023-03-14T16:43:39;7.20;99.90
20045;DHT22;10183;47.808;9.476;2023-03-14T16:46:09;8.60;99.90
20045;DHT22;10183;47.808;9.476;2023-03-14T16:48:36;8.80;99.90
20045;DHT22;10183;47.808;9.476;2023-03-14T16:51:05;8.50;99.90
20045;DHT22;10183;47.808;9.476;2023-03-14T16:53:31;7.90;99.90
20045;DHT22;10183;47.808;9.476;2023-03-14T16:55:58;7.00;99.90
20045;DHT22;10183;47.808;9.476;2023-03-14T16:58:25;6.70;99.90
20045;DHT22;10183;47.808;9.476;2023-03-14T17:00:51;6.40;99.90